sensor_id;sensor_type;location;lat;lon;timestamp;temperature;humidity
21928;DHT22;11128;51.096;17.190;2023-07-09T00:00:58;19.60;1.00
21928;DHT22;11128;51.096;17.190;2023-07-09T00:05:59;19.50;1.00
21928;DHT22;11128;51.096;17.190;2023-07-09T00:11:00;19.40;1.00
21928;DHT22;11128;51.096;17.190;2023-07-09T00:16:11;19.30;1.00
21928;DHT22;11128;51.096;17.190;2023-07-09T00:21:12;19.20;1.00
21928;DHT22;11128;51.096;17.190;2023-07-09T00:26:14;19.10;1.00
21928;DHT22;11128;51.096;17.190;2023-07-09T00:31:16;19.00;1.00
21928;DHT22;11128;51.096;17.190;2023-07-09T00:36:29;19.00;1.00
21928;DHT22;11128;51.096;17.190;2023-07-09T00:41:37;18.80;1.00
21928;DHT22;11128;51.096;17.190;2023-07-09T00:51:41;18.80;1.00
21928;DHT22;11128;51.096;17.190;2023-07-09T00:56:45;18.70;1.00
21928;DHT22;11128;51.096;17.190;2023-07-09T01:01:47;18.50;1.00
21928;DHT22;11128;51.096;17.190;2023-07-09T01:06:53;18.50;1.00
21928;DHT22;11128;51.096;17.190;2023-07-09T01:11:55;18.50;1.00
21928;DHT22;11128;51.096;17.190;2023-07-09T01:17:04;18.30;12.60
21928;DHT22;11128;51.096;17.190;2023-07-09T01:22:06;18.30;17.10
21928;DHT22;11128;51.096;17.190;2023-07-09T01:27:08;18.20;37.80
21928;DHT22;11128;51.096;17.190;2023-07-09T01:32:09;18.20;21.50
21928;DHT22;11128;51.096;17.190;2023-07-09T01:37:11;18.00;84.80
21928;DHT22;11128;51.096;17.190;2023-07-09T01:42:12;18.10;59.30
21928;DHT22;11128;51.096;17.190;2023-07-09T01:47:14;18.10;58.60
21928;DHT22;11128;51.096;17.190;2023-07-09T01:52:17;18.00;84.30
21928;DHT22;11128;51.096;17.190;2023-07-09T02:02:26;17.80;86.20
21928;DHT22;11128;51.096;17.190;2023-07-09T02:07:27;17.80;89.10
21928;DHT22;11128;51.096;17.190;2023-07-09T02:12:28;17.80;58.60
21928;DHT22;11128;51.096;17.190;2023-07-09T02:17:30;17.80;78.70
21928;DHT22;11128;51.096;17.190;2023-07-09T02:22:31;17.50;99.90
21928;DHT22;11128;51.096;17.190;2023-07-09T02:27:33;17.50;99.90
21928;DHT22;11128;51.096;17.190;2023-07-09T02:32:34;17.50;99.90
21928;DHT22;11128;51.096;17.190;2023-07-09T02:37:36;17.50;99.90
21928;DHT22;11128;51.096;17.190;2023-07-09T02:42:37;17.50;99.90
21928;DHT22;11128;51.096;17.190;2023-07-09T02:47:39;17.50;99.90
21928;DHT22;11128;51.096;17.190;2023-07-09T02:52:40;17.40;99.90
21928;DHT22;11128;51.096;17.190;2023-07-09T02:57:43;17.30;99.90
21928;DHT22;11128;51.096;17.190;2023-07-09T03:02:44;17.30;99.90
21928;DHT22;11128;51.096;17.190;2023-07-09T03:07:45;17.40;99.90
21928;DHT22;11128;51.096;17.190;2023-07-09T03:12:47;17.50;99.90
21928;DHT22;11128;51.096;17.190;2023-07-09T03:17:48;17.60;99.90
21928;DHT22;11128;51.096;17.190;2023-07-09T03:22:49;17.50;99.90
21928;DHT22;11128;51.096;17.190;2023-07-09T03:27:51;17.30;99.90
21928;DHT22;11128;51.096;17.190;2023-07-09T03:32:52;17.30;99.90
21928;DHT22;11128;51.096;17.190;2023-07-09T03:37:53;17.20;99.90
21928;DHT22;11128;51.096;17.190;2023-07-09T03:42:55;17.30;99.90
21928;DHT22;11128;51.096;17.190;2023-07-09T03:47:56;17.30;99.90
21928;DHT22;11128;51.096;17.190;2023-07-09T03:52:57;17.40;99.90
21928;DHT22;11128;51.096;17.190;2023-07-09T03:57:59;17.40;99.90
21928;DHT22;11128;51.096;17.190;2023-07-09T04:03:00;17.40;99.90
21928;DHT22;11128;51.096;17.190;2023-07-09T04:08:02;17.40;99.90
21928;DHT22;11128;51.096;17.190;2023-07-09T04:13:04;17.30;99.90
21928;DHT22;11128;51.096;17.190;2023-07-09T04:18:05;17.40;99.90
21928;DHT22;11128;51.096;17.190;2023-07-09T04:23:08;17.40;99.90
21928;DHT22;11128;51.096;17.190;2023-07-09T04:28:09;17.50;99.90
21928;DHT22;11128;51.096;17.190;2023-07-09T04:33:11;17.70;99.90
21928;DHT22;11128;51.096;17.190;2023-07-09T04:38:13;17.80;99.90
21928;DHT22;11128;51.096;17.190;2023-07-09T04:43:14;17.70;99.90
21928;DHT22;11128;51.096;17.190;2023-07-09T04:48:16;17.80;99.90
21928;DHT22;11128;51.096;17.190;2023-07-09T04:53:17;17.80;99.90
21928;DHT22;11128;51.096;17.190;2023-07-09T04:58:20;17.90;99.90
21928;DHT22;11128;51.096;17.190;2023-07-09T05:03:21;18.00;99.90
21928;DHT22;11128;51.096;17.190;2023-07-09T05:08:22;18.10;99.90
21928;DHT22;11128;51.096;17.190;2023-07-09T05:13:25;18.10;99.90
21928;DHT22;11128;51.096;17.190;2023-07-09T05:18:26;18.20;99.90
21928;DHT22;11128;51.096;17.190;2023-07-09T05:23:28;18.30;99.90
21928;DHT22;11128;51.096;17.190;2023-07-09T05:28:30;18.30;99.90
21928;DHT22;11128;51.096;17.190;2023-07-09T05:33:34;18.40;99.90
21928;DHT22;11128;51.096;17.190;2023-07-09T05:38:35;18.50;99.90
21928;DHT22;11128;51.096;17.190;2023-07-09T05:43:37;18.50;99.90
21928;DHT22;11128;51.096;17.190;2023-07-09T05:48:38;18.70;99.90
21928;DHT22;11128;51.096;17.190;2023-07-09T05:53:40;18.90;1.00
21928;DHT22;11128;51.096;17.190;2023-07-09T05:58:41;19.00;99.90
21928;DHT22;11128;51.096;17.190;2023-07-09T06:03:43;19.20;99.90
21928;DHT22;11128;51.096;17.190;2023-07-09T06:08:44;19.30;99.90
21928;DHT22;11128;51.096;17.190;2023-07-09T06:13:46;19.60;1.00
21928;DHT22;11128;51.096;17.190;2023-07-09T06:18:49;19.80;1.00
21928;DHT22;11128;51.096;17.190;2023-07-09T06:23:50;20.00;1.00
21928;DHT22;11128;51.096;17.190;2023-07-09T06:28:51;20.30;99.90
21928;DHT22;11128;51.096;17.190;2023-07-09T06:33:53;20.50;99.90
21928;DHT22;11128;51.096;17.190;2023-07-09T06:38:54;20.70;99.90
21928;DHT22;11128;51.096;17.190;2023-07-09T06:43:56;21.00;99.90
21928;DHT22;11128;51.096;17.190;2023-07-09T06:48:58;21.30;99.90
21928;DHT22;11128;51.096;17.190;2023-07-09T06:53:59;21.60;99.90
21928;DHT22;11128;51.096;17.190;2023-07-09T06:59:00;21.80;99.90
21928;DHT22;11128;51.096;17.190;2023-07-09T07:04:02;22.20;99.90
21928;DHT22;11128;51.096;17.190;2023-07-09T07:09:03;22.40;99.90
21928;DHT22;11128;51.096;17.190;2023-07-09T07:14:05;22.60;93.30
21928;DHT22;11128;51.096;17.190;2023-07-09T07:19:06;23.00;22.70
21928;DHT22;11128;51.096;17.190;2023-07-09T07:24:07;23.30;1.00
21928;DHT22;11128;51.096;17.190;2023-07-09T07:29:09;23.60;1.00
21928;DHT22;11128;51.096;17.190;2023-07-09T07:34:10;23.90;1.00
21928;DHT22;11128;51.096;17.190;2023-07-09T07:39:12;24.20;1.00
21928;DHT22;11128;51.096;17.190;2023-07-09T07:44:13;24.60;1.00
21928;DHT22;11128;51.096;17.190;2023-07-09T07:49:15;24.90;1.00
21928;DHT22;11128;51.096;17.190;2023-07-09T07:54:16;25.30;1.00
21928;DHT22;11128;51.096;17.190;2023-07-09T07:59:19;25.50;1.00
21928;DHT22;11128;51.096;17.190;2023-07-09T08:04:20;25.90;1.00
21928;DHT22;11128;51.096;17.190;2023-07-09T08:09:22;26.30;1.00
21928;DHT22;11128;51.096;17.190;2023-07-09T08:14:23;26.60;1.00
21928;DHT22;11128;51.096;17.190;2023-07-09T08:19:24;26.90;1.00
21928;DHT22;11128;51.096;17.190;2023-07-09T08:24:26;27.40;1.00
21928;DHT22;11128;51.096;17.190;2023-07-09T08:29:27;27.80;1.00
21928;DHT22;11128;51.096;17.190;2023-07-09T08:34:28;28.20;1.00
21928;DHT22;11128;51.096;17.190;2023-07-09T08:39:30;28.50;1.00
21928;DHT22;11128;51.096;17.190;2023-07-09T08:45:12;28.70;1.00
21928;DHT22;11128;51.096;17.190;2023-07-09T08:50:21;29.00;1.00
21928;DHT22;11128;51.096;17.190;2023-07-09T08:55:27;29.30;1.00
21928;DHT22;11128;51.096;17.190;2023-07-09T09:00:42;29.60;1.00
21928;DHT22;11128;51.096;17.190;2023-07-09T09:05:46;29.80;1.00
21928;DHT22;11128;51.096;17.190;2023-07-09T09:11:14;30.10;1.00
21928;DHT22;11128;51.096;17.190;2023-07-09T09:21:37;30.50;1.00
21928;DHT22;11128;51.096;17.190;2023-07-09T09:26:42;30.60;1.00
21928;DHT22;11128;51.096;17.190;2023-07-09T09:31:48;30.80;1.00
21928;DHT22;11128;51.096;17.190;2023-07-09T09:36:51;30.90;1.00
21928;DHT22;11128;51.096;17.190;2023-07-09T09:41:58;31.10;1.00
21928;DHT22;11128;51.096;17.190;2023-07-09T09:46:59;31.30;1.00
21928;DHT22;11128;51.096;17.190;2023-07-09T09:52:02;31.60;1.00
21928;DHT22;11128;51.096;17.190;2023-07-09T09:57:20;31.80;1.00
21928;DHT22;11128;51.096;17.190;2023-07-09T10:02:24;31.80;1.00
21928;DHT22;11128;51.096;17.190;2023-07-09T10:07:37;31.90;1.00
21928;DHT22;11128;51.096;17.190;2023-07-09T10:12:54;32.10;1.00
21928;DHT22;11128;51.096;17.190;2023-07-09T10:23:22;32.40;1.00
21928;DHT22;11128;51.096;17.190;2023-07-09T10:34:23;32.60;1.00
21928;DHT22;11128;51.096;17.190;2023-07-09T10:39:34;32.90;1.00
21928;DHT22;11128;51.096;17.190;2023-07-09T10:44:42;33.00;1.00
21928;DHT22;11128;51.096;17.190;2023-07-09T10:49:44;33.00;1.00
21928;DHT22;11128;51.096;17.190;2023-07-09T11:00:17;33.00;1.00
21928;DHT22;11128;51.096;17.190;2023-07-09T11:05:18;33.10;1.00
21928;DHT22;11128;51.096;17.190;2023-07-09T11:10:24;33.10;1.00
21928;DHT22;11128;51.096;17.190;2023-07-09T11:15:42;33.20;1.00
21928;DHT22;11128;51.096;17.190;2023-07-09T11:20:45;33.30;1.00
21928;DHT22;11128;51.096;17.190;2023-07-09T11:25:59;33.40;1.00
21928;DHT22;11128;51.096;17.190;2023-07-09T11:31:16;33.30;1.00
21928;DHT22;11128;51.096;17.190;2023-07-09T11:36:29;33.30;1.00
21928;DHT22;11128;51.096;17.190;2023-07-09T11:46:36;33.60;1.00
21928;DHT22;11128;51.096;17.190;2023-07-09T11:51:48;33.60;1.00
21928;DHT22;11128;51.096;17.190;2023-07-09T11:56:59;33.50;1.00
21928;DHT22;11128;51.096;17.190;2023-07-09T12:02:03;33.50;1.00
21928;DHT22;11128;51.096;17.190;2023-07-09T12:07:06;33.50;1.00
21928;DHT22;11128;51.096;17.190;2023-07-09T12:12:23;33.60;1.00
21928;DHT22;11128;51.096;17.190;2023-07-09T12:17:27;33.70;1.00
21928;DHT22;11128;51.096;17.190;2023-07-09T12:22:31;33.70;1.00
21928;DHT22;11128;51.096;17.190;2023-07-09T12:27:33;33.80;1.00
21928;DHT22;11128;51.096;17.190;2023-07-09T12:32:46;33.90;1.00
21928;DHT22;11128;51.096;17.190;2023-07-09T12:37:48;33.90;1.00
21928;DHT22;11128;51.096;17.190;2023-07-09T12:42:52;33.90;1.00
21928;DHT22;11128;51.096;17.190;2023-07-09T12:47:54;33.90;1.00
21928;DHT22;11128;51.096;17.190;2023-07-09T12:53:00;34.00;1.00
21928;DHT22;11128;51.096;17.190;2023-07-09T12:58:01;33.90;1.00
21928;DHT22;11128;51.096;17.190;2023-07-09T13:03:03;34.00;1.00
21928;DHT22;11128;51.096;17.190;2023-07-09T13:08:11;34.00;1.00
21928;DHT22;11128;51.096;17.190;2023-07-09T13:13:15;34.10;1.00
21928;DHT22;11128;51.096;17.190;2023-07-09T13:18:16;34.00;1.00
21928;DHT22;11128;51.096;17.190;2023-07-09T13:28:24;34.10;1.00
21928;DHT22;11128;51.096;17.190;2023-07-09T13:33:29;34.00;1.00
21928;DHT22;11128;51.096;17.190;2023-07-09T13:38:30;33.90;1.00
21928;DHT22;11128;51.096;17.190;2023-07-09T13:43:34;33.90;1.00
21928;DHT22;11128;51.096;17.190;2023-07-09T13:48:38;33.80;1.00
21928;DHT22;11128;51.096;17.190;2023-07-09T13:53:40;33.80;1.00
21928;DHT22;11128;51.096;17.190;2023-07-09T13:58:41;33.70;1.00
21928;DHT22;11128;51.096;17.190;2023-07-09T14:03:43;33.70;1.00
21928;DHT22;11128;51.096;17.190;2023-07-09T14:08:44;33.70;1.00
21928;DHT22;11128;51.096;17.190;2023-07-09T14:13:46;33.70;1.00
21928;DHT22;11128;51.096;17.190;2023-07-09T14:18:47;33.60;1.00
21928;DHT22;11128;51.096;17.190;2023-07-09T14:23:49;33.50;1.00
21928;DHT22;11128;51.096;17.190;2023-07-09T14:28:50;33.30;1.00
21928;DHT22;11128;51.096;17.190;2023-07-09T14:33:52;33.20;1.00
21928;DHT22;11128;51.096;17.190;2023-07-09T14:38:53;33.30;1.00
21928;DHT22;11128;51.096;17.190;2023-07-09T14:43:57;33.20;1.00
21928;DHT22;11128;51.096;17.190;2023-07-09T14:49:00;33.20;1.00
21928;DHT22;11128;51.096;17.190;2023-07-09T14:54:04;33.10;1.00
21928;DHT22;11128;51.096;17.190;2023-07-09T14:59:06;33.00;1.00
21928;DHT22;11128;51.096;17.190;2023-07-09T15:04:29;33.00;1.00
21928;DHT22;11128;51.096;17.190;2023-07-09T15:09:36;32.90;1.00
21928;DHT22;11128;51.096;17.190;2023-07-09T15:14:38;32.80;1.00
21928;DHT22;11128;51.096;17.190;2023-07-09T15:19:40;32.60;1.00
21928;DHT22;11128;51.096;17.190;2023-07-09T15:24:42;32.50;1.00
21928;DHT22;11128;51.096;17.190;2023-07-09T15:29:43;32.30;1.00
21928;DHT22;11128;51.096;17.190;2023-07-09T15:34:45;32.10;1.00
21928;DHT22;11128;51.096;17.190;2023-07-09T15:39:46;32.00;1.00
21928;DHT22;11128;51.096;17.190;2023-07-09T15:44:48;31.90;1.00
21928;DHT22;11128;51.096;17.190;2023-07-09T15:49:50;31.90;1.00
21928;DHT22;11128;51.096;17.190;2023-07-09T15:54:51;31.70;1.00
21928;DHT22;11128;51.096;17.190;2023-07-09T15:59:52;31.60;1.00
21928;DHT22;11128;51.096;17.190;2023-07-09T16:04:54;31.50;1.00
21928;DHT22;11128;51.096;17.190;2023-07-09T16:09:55;31.40;1.00
21928;DHT22;11128;51.096;17.190;2023-07-09T16:14:57;31.30;1.00
21928;DHT22;11128;51.096;17.190;2023-07-09T16:19:58;31.20;1.00
21928;DHT22;11128;51.096;17.190;2023-07-09T16:25:18;31.10;1.00
21928;DHT22;11128;51.096;17.190;2023-07-09T16:30:23;31.00;1.00
21928;DHT22;11128;51.096;17.190;2023-07-09T16:35:28;30.90;1.00
21928;DHT22;11128;51.096;17.190;2023-07-09T16:40:30;30.80;1.00
21928;DHT22;11128;51.096;17.190;2023-07-09T16:45:32;30.80;1.00
21928;DHT22;11128;51.096;17.190;2023-07-09T16:50:33;30.70;1.00
21928;DHT22;11128;51.096;17.190;2023-07-09T16:55:34;30.60;1.00
21928;DHT22;11128;51.096;17.190;2023-07-09T17:00:36;30.60;1.00
21928;DHT22;11128;51.096;17.190;2023-07-09T17:05:38;30.40;1.00
21928;DHT22;11128;51.096;17.190;2023-07-09T17:10:40;30.40;1.00
21928;DHT22;11128;51.096;17.190;2023-07-09T17:15:42;30.30;1.00
21928;DHT22;11128;51.096;17.190;2023-07-09T17:20:43;30.10;1.00
21928;DHT22;11128;51.096;17.190;2023-07-09T17:25:45;30.00;1.00
21928;DHT22;11128;51.096;17.190;2023-07-09T17:30:48;29.90;1.00
21928;DHT22;11128;51.096;17.190;2023-07-09T17:35:51;29.80;1.00
21928;DHT22;11128;51.096;17.190;2023-07-09T17:40:53;29.70;1.00
21928;DHT22;11128;51.096;17.190;2023-07-09T17:45:54;29.50;1.00
21928;DHT22;11128;51.096;17.190;2023-07-09T17:50:56;29.50;1.00
21928;DHT22;11128;51.096;17.190;2023-07-09T17:55:58;29.30;1.00
21928;DHT22;11128;51.096;17.190;2023-07-09T18:01:02;29.20;1.00
21928;DHT22;11128;51.096;17.190;2023-07-09T18:06:03;29.00;1.00
21928;DHT22;11128;51.096;17.190;2023-07-09T18:11:05;28.90;1.00
21928;DHT22;11128;51.096;17.190;2023-07-09T18:16:07;28.80;1.00
21928;DHT22;11128;51.096;17.190;2023-07-09T18:21:12;28.60;1.00
21928;DHT22;11128;51.096;17.190;2023-07-09T18:26:14;28.50;1.00
21928;DHT22;11128;51.096;17.190;2023-07-09T18:31:15;28.40;1.00
21928;DHT22;11128;51.096;17.190;2023-07-09T18:36:16;28.30;1.00
21928;DHT22;11128;51.096;17.190;2023-07-09T18:41:17;28.10;1.00
21928;DHT22;11128;51.096;17.190;2023-07-09T18:46:19;28.00;1.00
21928;DHT22;11128;51.096;17.190;2023-07-09T18:51:20;27.90;1.00
21928;DHT22;11128;51.096;17.190;2023-07-09T18:56:22;27.70;1.00
21928;DHT22;11128;51.096;17.190;2023-07-09T19:01:23;27.60;1.00
21928;DHT22;11128;51.096;17.190;2023-07-09T19:06:24;27.50;1.00
21928;DHT22;11128;51.096;17.190;2023-07-09T19:11:26;27.50;1.00
21928;DHT22;11128;51.096;17.190;2023-07-09T19:16:27;27.30;1.00
21928;DHT22;11128;51.096;17.190;2023-07-09T19:21:30;27.10;1.00
21928;DHT22;11128;51.096;17.190;2023-07-09T19:26:31;27.00;1.00
21928;DHT22;11128;51.096;17.190;2023-07-09T19:31:33;26.90;1.00
21928;DHT22;11128;51.096;17.190;2023-07-09T19:36:34;26.70;1.00
21928;DHT22;11128;51.096;17.190;2023-07-09T19:41:36;26.50;1.00
21928;DHT22;11128;51.096;17.190;2023-07-09T19:46:37;26.40;1.00
21928;DHT22;11128;51.096;17.190;2023-07-09T19:51:38;26.20;1.00
21928;DHT22;11128;51.096;17.190;2023-07-09T19:56:43;26.00;1.00
21928;DHT22;11128;51.096;17.190;2023-07-09T20:01:49;25.80;1.00
21928;DHT22;11128;51.096;17.190;2023-07-09T20:06:50;25.70;1.00
21928;DHT22;11128;51.096;17.190;2023-07-09T20:11:51;25.50;1.00
21928;DHT22;11128;51.096;17.190;2023-07-09T20:16:52;25.30;1.00
21928;DHT22;11128;51.096;17.190;2023-07-09T20:21:54;25.20;1.00
21928;DHT22;11128;51.096;17.190;2023-07-09T20:26:55;25.10;1.00
21928;DHT22;11128;51.096;17.190;2023-07-09T20:31:57;25.00;1.00
21928;DHT22;11128;51.096;17.190;2023-07-09T20:36:58;24.90;1.00
21928;DHT22;11128;51.096;17.190;2023-07-09T20:42:00;24.90;1.00
21928;DHT22;11128;51.096;17.190;2023-07-09T20:47:03;24.70;1.00
21928;DHT22;11128;51.096;17.190;2023-07-09T20:52:04;24.60;1.00
21928;DHT22;11128;51.096;17.190;2023-07-09T20:57:15;24.30;1.00
21928;DHT22;11128;51.096;17.190;2023-07-09T21:02:20;24.10;1.00
21928;DHT22;11128;51.096;17.190;2023-07-09T21:07:25;24.00;1.00
21928;DHT22;11128;51.096;17.190;2023-07-09T21:12:26;23.90;1.00
21928;DHT22;11128;51.096;17.190;2023-07-09T21:17:27;23.80;1.00
21928;DHT22;11128;51.096;17.190;2023-07-09T21:22:30;23.70;1.00
21928;DHT22;11128;51.096;17.190;2023-07-09T21:27:31;23.50;1.00
21928;DHT22;11128;51.096;17.190;2023-07-09T21:32:32;23.30;1.00
21928;DHT22;11128;51.096;17.190;2023-07-09T21:37:33;23.20;1.00
21928;DHT22;11128;51.096;17.190;2023-07-09T21:42:34;23.10;1.00
21928;DHT22;11128;51.096;17.190;2023-07-09T21:47:35;23.20;1.00
21928;DHT22;11128;51.096;17.190;2023-07-09T21:52:37;23.20;1.00
21928;DHT22;11128;51.096;17.190;2023-07-09T21:57:39;23.10;1.00
21928;DHT22;11128;51.096;17.190;2023-07-09T22:02:40;22.90;1.00
21928;DHT22;11128;51.096;17.190;2023-07-09T22:07:42;22.70;1.00
21928;DHT22;11128;51.096;17.190;2023-07-09T22:12:54;22.60;1.00
21928;DHT22;11128;51.096;17.190;2023-07-09T22:17:56;22.40;1.00
21928;DHT22;11128;51.096;17.190;2023-07-09T22:22:58;22.30;1.00
21928;DHT22;11128;51.096;17.190;2023-07-09T22:27:59;22.10;1.00
21928;DHT22;11128;51.096;17.190;2023-07-09T22:33:01;22.00;1.00
21928;DHT22;11128;51.096;17.190;2023-07-09T22:38:02;21.90;1.00
21928;DHT22;11128;51.096;17.190;2023-07-09T22:43:04;21.80;1.00
21928;DHT22;11128;51.096;17.190;2023-07-09T22:48:06;21.70;1.00
21928;DHT22;11128;51.096;17.190;2023-07-09T22:53:17;21.60;1.00
21928;DHT22;11128;51.096;17.190;2023-07-09T22:58:20;21.60;1.00
21928;DHT22;11128;51.096;17.190;2023-07-09T23:03:41;21.60;1.00
21928;DHT22;11128;51.096;17.190;2023-07-09T23:08:44;21.60;1.00
21928;DHT22;11128;51.096;17.190;2023-07-09T23:13:46;21.40;1.00
21928;DHT22;11128;51.096;17.190;2023-07-09T23:18:48;21.40;1.00
21928;DHT22;11128;51.096;17.190;2023-07-09T23:23:51;21.30;1.00
21928;DHT22;11128;51.096;17.190;2023-07-09T23:29:00;21.00;1.00
21928;DHT22;11128;51.096;17.190;2023-07-09T23:34:01;21.00;1.00
21928;DHT22;11128;51.096;17.190;2023-07-09T23:39:03;21.00;1.00
21928;DHT22;11128;51.096;17.190;2023-07-09T23:44:13;20.70;1.00
21928;DHT22;11128;51.096;17.190;2023-07-09T23:49:26;20.60;1.00
21928;DHT22;11128;51.096;17.190;2023-07-09T23:54:28;20.50;1.00
21928;DHT22;11128;51.096;17.190;2023-07-09T23:59:31;20.40;1.00
